createdAt,value
2023-05-10T00:00:24.787Z,100726.39
2023-05-10T00:03:12.406Z,100727.18
2023-05-10T00:05:43.046Z,100723.19
2023-05-10T00:08:14.119Z,100722.62
2023-05-10T00:10:44.692Z,100727.18
2023-05-10T00:13:15.652Z,100724.74
2023-05-10T00:15:46.208Z,100724.09
2023-05-10T00:18:16.786Z,100722.45
2023-05-10T00:20:47.558Z,100717.73
2023-05-10T00:23:18.232Z,100717.05
2023-05-10T00:25:48.776Z,100714.02
2023-05-10T00:28:19.348Z,100714.06
2023-05-10T00:30:49.956Z,100710.75
2023-05-10T00:33:20.929Z,100709.79
2023-05-10T00:35:51.938Z,100704.55
2023-05-10T00:38:22.497Z,100707.56
2023-05-10T00:40:53.106Z,100702.67
2023-05-10T00:43:29.376Z,100702.67
2023-05-10T00:45:59.960Z,100698.30
2023-05-10T00:48:30.753Z,100699.34
2023-05-10T00:51:02.970Z,100697.02
2023-05-10T00:53:34.695Z,100692.33
2023-05-10T00:56:06.562Z,100690.48
2023-05-10T00:58:37.428Z,100692.30
2023-05-10T01:01:08.399Z,100690.25
2023-05-10T01:03:39.525Z,100687.46
2023-05-10T01:06:11.018Z,100691.14
2023-05-10T01:08:42.029Z,100688.64
2023-05-10T01:11:12.612Z,100687.71
2023-05-10T01:13:44.275Z,100686.40
2023-05-10T01:16:15.369Z,100686.90
2023-05-10T01:18:46.637Z,100682.98
2023-05-10T01:21:24.611Z,100682.65
2023-05-10T01:24:11.832Z,100679.48
2023-05-10T01:26:58.992Z,100676.69
2023-05-10T01:29:51.511Z,100677.11
2023-05-10T01:32:32.498Z,100678.77
2023-05-10T01:35:06.293Z,100678.73
2023-05-10T01:37:43.202Z,100679.70
2023-05-10T01:40:20.814Z,100677.21
2023-05-10T01:42:53.581Z,100673.06
2023-05-10T01:45:29.671Z,100677.25
2023-05-10T01:48:06.551Z,100678.33
2023-05-10T01:50:38.569Z,100675.29
2023-05-10T01:53:11.790Z,100674.72
2023-05-10T01:55:45.229Z,100674.33
2023-05-10T01:58:18.264Z,100673.41
2023-05-10T02:00:50.868Z,100672.01
2023-05-10T02:03:24.478Z,100670.96
2023-05-10T02:05:56.762Z,100667.66
2023-05-10T02:08:28.490Z,100675.08
2023-05-10T02:10:59.829Z,100672.35
2023-05-10T02:13:33.823Z,100670.87
2023-05-10T02:16:05.812Z,100665.52
2023-05-10T02:18:38.161Z,100665.42
2023-05-10T02:21:10.331Z,100662.93
2023-05-10T02:23:42.768Z,100663.80
2023-05-10T02:26:14.591Z,100667.30
2023-05-10T02:28:46.894Z,100662.16
2023-05-10T02:31:17.940Z,100661.00
2023-05-10T02:33:49.722Z,100662.87
2023-05-10T02:36:23.414Z,100659.80
2023-05-10T02:38:54.892Z,100660.17
2023-05-10T02:41:27.948Z,100663.80
2023-05-10T02:44:01.890Z,100656.56
2023-05-10T02:46:32.589Z,100662.02
2023-05-10T02:49:03.830Z,100659.97
2023-05-10T02:51:37.280Z,100657.23
2023-05-10T02:54:11.749Z,100658.66
2023-05-10T02:56:44.618Z,100657.17
2023-05-10T02:59:15.267Z,100656.94
2023-05-10T03:01:45.926Z,100656.91
2023-05-10T03:04:17.228Z,100657.77
2023-05-10T03:06:47.928Z,100659.88
2023-05-10T03:09:18.684Z,100661.63
2023-05-10T03:11:57.266Z,100663.04
2023-05-10T03:14:36.364Z,100664.21
2023-05-10T03:17:12.785Z,100674.05
2023-05-10T03:19:46.143Z,100672.07
2023-05-10T03:22:23.538Z,100674.83
2023-05-10T03:24:56.003Z,100674.63
2023-05-10T03:27:28.353Z,100669.10
2023-05-10T03:30:00.077Z,100669.77
2023-05-10T03:32:31.390Z,100662.52
2023-05-10T03:35:03.399Z,100659.36
2023-05-10T03:37:34.302Z,100661.35
2023-05-10T03:40:05.234Z,100659.45
2023-05-10T03:42:36.961Z,100657.44
2023-05-10T03:45:08.738Z,100657.77
2023-05-10T03:47:39.468Z,100654.44
2023-05-10T03:50:12.040Z,100650.14
2023-05-10T03:52:42.617Z,100651.88
2023-05-10T03:55:13.272Z,100651.21
2023-05-10T03:57:44.088Z,100654.91
2023-05-10T04:00:15.712Z,100651.21
2023-05-10T04:02:46.534Z,100651.91
2023-05-10T04:05:22.161Z,100647.67
2023-05-10T04:07:52.712Z,100647.20
2023-05-10T04:10:23.324Z,100648.64
2023-05-10T04:12:53.873Z,100647.38
2023-05-10T04:15:24.658Z,100649.05
2023-05-10T04:17:55.205Z,100646.36
2023-05-10T04:20:25.713Z,100646.56
2023-05-10T04:22:56.276Z,100645.25
2023-05-10T04:25:26.818Z,100647.84
2023-05-10T04:27:57.368Z,100649.09
2023-05-10T04:30:29.598Z,100647.55
2023-05-10T04:33:01.127Z,100651.27
2023-05-10T04:35:31.783Z,100650.56
2023-05-10T04:38:02.324Z,100647.34
2023-05-10T04:40:32.874Z,100650.57
2023-05-10T04:43:03.427Z,100649.66
2023-05-10T04:45:33.938Z,100643.94
2023-05-10T04:48:04.598Z,100647.00
2023-05-10T04:50:35.234Z,100641.14
2023-05-10T04:53:05.789Z,100645.52
2023-05-10T04:55:36.298Z,100644.81
2023-05-10T04:58:06.879Z,100645.61
2023-05-10T05:00:37.385Z,100648.43
2023-05-10T05:03:08.376Z,100651.23
2023-05-10T05:05:39.013Z,100642.16
2023-05-10T05:08:10.029Z,100639.34
2023-05-10T05:10:40.608Z,100643.90
2023-05-10T05:13:11.205Z,100640.82
2023-05-10T05:15:41.712Z,100644.46
2023-05-10T05:18:16.816Z,100639.30
2023-05-10T05:20:49.097Z,100636.67
2023-05-10T05:23:21.771Z,100639.30
2023-05-10T05:25:53.263Z,100641.39
2023-05-10T05:28:23.887Z,100645.27
2023-05-10T05:30:54.392Z,100642.83
2023-05-10T05:33:24.964Z,100644.55
2023-05-10T05:35:55.614Z,100649.33
2023-05-10T05:38:26.264Z,100644.40
2023-05-10T05:40:56.983Z,100645.04
2023-05-10T05:43:27.615Z,100642.79
2023-05-10T05:45:59.172Z,100641.27
2023-05-10T05:48:31.459Z,100644.21
2023-05-10T05:51:02.065Z,100640.88
2023-05-10T05:53:32.568Z,100641.28
2023-05-10T05:56:03.089Z,100636.17
2023-05-10T05:58:33.628Z,100637.02
2023-05-10T06:01:04.423Z,100631.31
2023-05-10T06:03:35.306Z,100632.13
2023-05-10T06:06:06.273Z,100632.76
2023-05-10T06:08:36.850Z,100630.38
2023-05-10T06:11:07.441Z,100633.42
2023-05-10T06:13:38.047Z,100637.64
2023-05-10T06:16:10.358Z,100634.77
2023-05-10T06:18:40.859Z,100639.60
2023-05-10T06:21:11.527Z,100638.85
2023-05-10T06:23:42.067Z,100636.86
2023-05-10T06:26:12.686Z,100633.27
2023-05-10T06:28:43.287Z,100633.91
2023-05-10T06:31:13.902Z,100629.27
2023-05-10T06:33:44.526Z,100629.35
2023-05-10T06:36:15.585Z,100633.11
2023-05-10T06:38:46.159Z,100627.52
2023-05-10T06:41:16.813Z,100633.90
2023-05-10T06:43:47.390Z,100630.66
2023-05-10T06:46:17.886Z,100626.52
2023-05-10T06:48:48.458Z,100634.92
2023-05-10T06:51:19.050Z,100636.66
2023-05-10T06:53:49.712Z,100632.91
2023-05-10T06:56:22.583Z,100637.52
2023-05-10T06:58:53.292Z,100636.05
2023-05-10T07:01:23.961Z,100641.11
2023-05-10T07:03:54.624Z,100628.52
2023-05-10T07:06:33.062Z,100634.55
2023-05-10T07:09:04.625Z,100634.06
2023-05-10T07:11:35.142Z,100635.35
2023-05-10T07:14:05.636Z,100630.45
2023-05-10T07:16:36.161Z,100629.39
2023-05-10T07:19:07.568Z,100638.47
2023-05-10T07:21:38.571Z,100640.60
2023-05-10T07:24:09.335Z,100630.44
2023-05-10T07:26:39.954Z,100633.92
2023-05-10T07:29:11.106Z,100634.80
2023-05-10T07:31:42.995Z,100635.02
2023-05-10T07:34:13.527Z,100633.90
2023-05-10T07:36:44.074Z,100642.73
2023-05-10T07:39:18.611Z,100642.43
2023-05-10T07:41:51.869Z,100644.09
2023-05-10T07:44:22.498Z,100641.38
2023-05-10T07:46:53.185Z,100633.83
2023-05-10T07:49:25.193Z,100634.36
2023-05-10T07:51:55.697Z,100639.12
2023-05-10T07:54:26.279Z,100641.02
2023-05-10T07:56:56.840Z,100629.13
2023-05-10T07:59:27.410Z,100624.31
2023-05-10T08:01:58.364Z,100625.45
2023-05-10T08:04:29.161Z,100624.27
2023-05-10T08:06:59.689Z,100619.38
2023-05-10T08:09:30.172Z,100630.04
2023-05-10T08:12:01.066Z,100623.66
2023-05-10T08:14:31.824Z,100611.69
2023-05-10T08:17:02.363Z,100611.20
2023-05-10T08:19:33.284Z,100614.75
2023-05-10T08:22:03.877Z,100612.67
2023-05-10T08:24:35.903Z,100617.02
2023-05-10T08:27:06.678Z,100604.41
2023-05-10T08:29:48.993Z,100607.46
2023-05-10T08:32:20.810Z,100619.04
2023-05-10T08:34:51.375Z,100616.14
2023-05-10T08:37:21.949Z,100610.66
2023-05-10T08:39:52.547Z,100611.66
2023-05-10T08:42:24.902Z,100614.53
2023-05-10T08:44:56.180Z,100619.55
2023-05-10T08:47:27.508Z,100616.89
2023-05-10T08:50:00.672Z,100619.45
2023-05-10T08:52:32.247Z,100617.77
2023-05-10T08:55:03.029Z,100629.40
2023-05-10T08:57:33.477Z,100628.19
2023-05-10T09:00:04.870Z,100606.73
2023-05-10T09:02:35.839Z,100609.22
2023-05-10T09:05:08.058Z,100610.15
2023-05-10T09:07:38.754Z,100612.21
2023-05-10T09:10:11.429Z,100605.41
2023-05-10T09:12:41.989Z,100604.19
2023-05-10T09:15:17.223Z,100610.13
2023-05-10T09:17:48.482Z,100619.23
2023-05-10T09:20:19.650Z,100603.13
2023-05-10T09:22:50.771Z,100608.09
2023-05-10T09:25:21.469Z,100605.34
2023-05-10T09:27:52.312Z,100613.05
2023-05-10T09:30:27.847Z,100607.56
2023-05-10T09:32:59.263Z,100605.09
2023-05-10T09:35:30.384Z,100604.84
2023-05-10T09:38:01.783Z,100604.60
2023-05-10T09:40:33.079Z,100605.73
2023-05-10T09:43:04.681Z,100599.48
2023-05-10T09:45:38.659Z,100590.30
2023-05-10T09:48:10.349Z,100587.61
2023-05-10T09:50:41.435Z,100580.61
2023-05-10T09:53:16.872Z,100587.83
2023-05-10T09:55:48.056Z,100594.20
2023-05-10T09:58:18.593Z,100579.55
2023-05-10T10:00:52.633Z,100587.93
2023-05-10T10:03:23.763Z,100581.11
2023-05-10T10:05:57.030Z,100581.23
2023-05-10T10:08:29.079Z,100575.86
2023-05-10T10:10:59.696Z,100561.54
2023-05-10T10:13:30.765Z,100554.01
2023-05-10T10:16:01.362Z,100551.70
2023-05-10T10:18:32.862Z,100553.55
2023-05-10T10:21:03.715Z,100561.42
2023-05-10T10:23:34.269Z,100548.16
2023-05-10T10:26:05.674Z,100540.33
2023-05-10T10:28:41.883Z,100541.80
2023-05-10T10:31:20.187Z,100549.30
2023-05-10T10:34:03.049Z,100539.65
2023-05-10T10:36:34.992Z,100549.59
2023-05-10T10:39:10.701Z,100540.46
2023-05-10T10:41:44.977Z,100547.83
2023-05-10T10:44:34.854Z,100544.52
2023-05-10T10:47:09.593Z,100540.64
2023-05-10T10:49:46.493Z,100536.39
2023-05-10T10:52:18.192Z,100526.02
2023-05-10T10:54:53.470Z,100523.59
2023-05-10T10:57:24.100Z,100531.39
2023-05-10T11:00:14.590Z,100528.44
2023-05-10T11:02:50.062Z,100511.86
2023-05-10T11:05:35.309Z,100511.82
2023-05-10T11:08:11.460Z,100521.70
2023-05-10T11:10:42.799Z,100514.57
2023-05-10T11:13:13.335Z,100516.98
2023-05-10T11:15:51.829Z,100511.91
2023-05-10T11:18:23.063Z,100513.83
2023-05-10T11:20:54.194Z,100525.59
2023-05-10T11:23:24.776Z,100513.56
2023-05-10T11:25:56.200Z,100504.58
2023-05-10T11:28:28.149Z,100513.42
2023-05-10T11:30:59.189Z,100514.97
2023-05-10T11:33:29.757Z,100503.71
2023-05-10T11:36:00.489Z,100490.58
2023-05-10T11:38:34.991Z,100496.38
2023-05-10T11:41:05.554Z,100489.65
2023-05-10T11:43:37.848Z,100501.49
2023-05-10T11:46:08.844Z,100501.48
2023-05-10T11:48:40.823Z,100503.02
2023-05-10T11:51:11.917Z,100503.84
2023-05-10T11:53:42.523Z,100494.29
2023-05-10T11:56:13.646Z,100490.76
2023-05-10T11:58:44.544Z,100482.14
2023-05-10T12:01:15.217Z,100484.55
2023-05-10T12:03:46.237Z,100497.00
2023-05-10T12:06:17.556Z,100496.55
2023-05-10T12:08:49.210Z,100492.85
2023-05-10T12:11:20.426Z,100494.12
2023-05-10T12:13:51.039Z,100504.23
2023-05-10T12:16:22.337Z,100496.48
2023-05-10T12:18:53.356Z,100487.52
2023-05-10T12:21:24.197Z,100494.51
2023-05-10T12:23:55.559Z,100491.61
2023-05-10T12:26:27.534Z,100486.20
2023-05-10T12:29:13.482Z,100495.22
2023-05-10T12:31:54.576Z,100506.12
2023-05-10T12:34:28.967Z,100494.43
2023-05-10T12:36:59.593Z,100491.15
2023-05-10T12:39:39.746Z,100488.67
2023-05-10T12:42:10.369Z,100492.67
2023-05-10T12:44:41.216Z,100496.60
2023-05-10T12:47:11.849Z,100493.32
2023-05-10T12:49:42.434Z,100497.29
2023-05-10T12:52:12.970Z,100497.20
2023-05-10T12:54:43.531Z,100490.57
2023-05-10T12:57:14.973Z,100486.48
2023-05-10T12:59:45.587Z,100483.94
2023-05-10T13:02:16.452Z,100477.17
2023-05-10T13:04:48.946Z,100469.87
2023-05-10T13:07:21.519Z,100481.31
2023-05-10T13:09:52.129Z,100470.01
2023-05-10T13:12:22.900Z,100474.02
2023-05-10T13:14:53.672Z,100473.52
2023-05-10T13:17:24.591Z,100468.59
2023-05-10T13:19:55.492Z,100469.46
2023-05-10T13:22:39.328Z,100464.83
2023-05-10T13:25:12.565Z,100475.66
2023-05-10T13:27:43.191Z,100473.23
2023-05-10T13:30:14.168Z,100473.23
2023-05-10T13:32:45.045Z,100474.45
2023-05-10T13:35:15.826Z,100472.18
2023-05-10T13:37:46.523Z,100459.63
2023-05-10T13:40:18.210Z,100465.00
2023-05-10T13:42:49.061Z,100458.73
2023-05-10T13:45:19.994Z,100452.34
2023-05-10T13:47:50.854Z,100454.45
2023-05-10T13:50:21.963Z,100453.70
2023-05-10T13:52:52.653Z,100455.58
2023-05-10T13:55:23.889Z,100450.23
2023-05-10T13:57:55.159Z,100448.73
2023-05-10T14:00:26.285Z,100443.05
2023-05-10T14:02:57.677Z,100440.84
2023-05-10T14:05:28.860Z,100441.83
2023-05-10T14:07:59.866Z,100443.68
2023-05-10T14:10:31.194Z,100444.96
2023-05-10T14:13:02.340Z,100440.77
2023-05-10T14:15:33.967Z,100435.09
2023-05-10T14:18:04.836Z,100445.20
2023-05-10T14:20:35.563Z,100433.46
2023-05-10T14:23:06.299Z,100434.71
2023-05-10T14:25:37.374Z,100439.86
2023-05-10T14:28:08.158Z,100428.94
2023-05-10T14:30:38.885Z,100420.73
2023-05-10T14:33:10.027Z,100436.29
2023-05-10T14:35:41.577Z,100430.18
2023-05-10T14:38:13.633Z,100432.61
2023-05-10T14:40:44.561Z,100434.68
2023-05-10T14:43:15.855Z,100434.11
2023-05-10T14:45:47.712Z,100433.36
2023-05-10T14:48:18.640Z,100427.19
2023-05-10T14:50:50.769Z,100423.11
2023-05-10T14:53:21.747Z,100429.38
2023-05-10T14:55:53.690Z,100424.07
2023-05-10T14:58:26.156Z,100427.44
2023-05-10T15:00:57.779Z,100425.16
2023-05-10T15:03:29.148Z,100430.23
2023-05-10T15:06:02.435Z,100428.14
2023-05-10T15:08:32.983Z,100428.43
2023-05-10T15:11:05.775Z,100426.97
2023-05-10T15:13:36.788Z,100427.02
2023-05-10T15:16:07.888Z,100422.90
2023-05-10T15:18:38.828Z,100419.12
2023-05-10T15:21:09.533Z,100424.23
2023-05-10T15:23:40.182Z,100423.55
2023-05-10T15:26:14.699Z,100429.91
2023-05-10T15:28:45.481Z,100420.83
2023-05-10T15:31:18.544Z,100427.52
2023-05-10T15:33:49.133Z,100430.29
2023-05-10T15:36:21.994Z,100422.63
2023-05-10T15:38:52.750Z,100424.30
2023-05-10T15:41:24.001Z,100424.66
2023-05-10T15:43:55.998Z,100415.19
2023-05-10T15:46:26.603Z,100420.20
2023-05-10T15:48:57.376Z,100421.69
2023-05-10T15:51:28.115Z,100426.08
2023-05-10T15:54:07.218Z,100422.27
2023-05-10T15:56:39.084Z,100412.34
2023-05-10T15:59:12.491Z,100412.82
2023-05-10T16:01:43.342Z,100418.88
2023-05-10T16:04:16.478Z,100416.89
2023-05-10T16:06:48.470Z,100414.77
2023-05-10T16:09:19.192Z,100420.13
2023-05-10T16:11:49.941Z,100422.29
2023-05-10T16:14:22.426Z,100421.38
2023-05-10T16:16:53.796Z,100422.51
2023-05-10T16:19:24.847Z,100425.23
2023-05-10T16:21:56.321Z,100418.52
2023-05-10T16:24:27.188Z,100421.56
2023-05-10T16:26:57.867Z,100418.16
2023-05-10T16:29:29.856Z,100428.72
2023-05-10T16:32:00.564Z,100426.95
2023-05-10T16:34:31.152Z,100425.80
2023-05-10T16:37:02.391Z,100429.61
2023-05-10T16:39:33.502Z,100429.14
2023-05-10T16:42:04.463Z,100428.08
2023-05-10T16:44:36.152Z,100431.84
2023-05-10T16:47:08.626Z,100432.67
2023-05-10T16:49:40.251Z,100437.61
2023-05-10T16:52:16.955Z,100439.61
2023-05-10T16:54:47.842Z,100439.16
2023-05-10T16:57:19.397Z,100437.70
2023-05-10T16:59:50.270Z,100441.64
2023-05-10T17:02:22.702Z,100439.64
2023-05-10T17:04:56.428Z,100444.65
2023-05-10T17:07:31.987Z,100447.73
2023-05-10T17:10:02.704Z,100450.02
2023-05-10T17:12:34.473Z,100450.99
2023-05-10T17:15:06.710Z,100447.95
2023-05-10T17:17:37.564Z,100454.33
2023-05-10T17:20:11.791Z,100456.10
2023-05-10T17:22:43.879Z,100456.90
2023-05-10T17:25:21.875Z,100461.45
2023-05-10T17:27:52.672Z,100464.86
2023-05-10T17:30:26.561Z,100469.31
2023-05-10T17:33:01.482Z,100469.73
2023-05-10T17:35:36.636Z,100472.59
2023-05-10T17:38:07.444Z,100474.08
2023-05-10T17:40:41.331Z,100475.68
2023-05-10T17:43:14.527Z,100478.70
2023-05-10T17:45:52.430Z,100483.44
2023-05-10T17:48:24.425Z,100484.86
2023-05-10T17:50:55.226Z,100488.47
2023-05-10T17:53:29.606Z,100489.52
2023-05-10T17:56:02.202Z,100491.52
2023-05-10T17:58:33.499Z,100494.23
2023-05-10T18:01:04.572Z,100494.78
2023-05-10T18:03:36.695Z,100499.11
2023-05-10T18:06:08.525Z,100499.64
2023-05-10T18:08:40.383Z,100499.41
2023-05-10T18:11:11.261Z,100503.04
2023-05-10T18:13:41.965Z,100503.07
2023-05-10T18:16:13.957Z,100507.22
2023-05-10T18:18:45.956Z,100507.15
2023-05-10T18:21:16.888Z,100510.36
2023-05-10T18:23:48.994Z,100510.70
2023-05-10T18:26:20.041Z,100514.11
2023-05-10T18:28:55.432Z,100520.71
2023-05-10T18:31:28.929Z,100520.29
2023-05-10T18:33:59.828Z,100523.65
2023-05-10T18:36:31.759Z,100530.12
2023-05-10T18:39:02.753Z,100533.66
2023-05-10T18:41:37.749Z,100538.88
2023-05-10T18:44:09.430Z,100540.69
2023-05-10T18:46:40.273Z,100543.39
2023-05-10T18:49:11.450Z,100549.40
2023-05-10T18:51:42.672Z,100547.41
2023-05-10T18:54:21.371Z,100549.15
2023-05-10T18:56:52.605Z,100550.63
2023-05-10T18:59:28.189Z,100552.88
2023-05-10T19:01:59.281Z,100556.35
2023-05-10T19:04:31.322Z,100557.67
2023-05-10T19:07:03.301Z,100558.73
2023-05-10T19:09:33.913Z,100559.60
2023-05-10T19:12:05.717Z,100564.61
2023-05-10T19:14:38.406Z,100564.67
2023-05-10T19:17:09.191Z,100565.60
2023-05-10T19:19:40.080Z,100566.33
2023-05-10T19:22:10.943Z,100562.42
2023-05-10T19:24:42.531Z,100563.93
2023-05-10T19:27:15.970Z,100562.08
2023-05-10T19:29:46.814Z,100565.60
2023-05-10T19:32:27.494Z,100567.23
2023-05-10T19:34:58.304Z,100565.96
2023-05-10T19:37:28.818Z,100566.77
2023-05-10T19:39:59.309Z,100569.64
2023-05-10T19:42:29.933Z,100568.92
2023-05-10T19:45:00.970Z,100565.47
2023-05-10T19:47:31.816Z,100568.66
2023-05-10T19:50:02.497Z,100569.22
2023-05-10T19:52:33.302Z,100569.02
2023-05-10T19:55:04.658Z,100568.61
2023-05-10T19:57:35.206Z,100567.96
2023-05-10T20:00:06.827Z,100569.24
2023-05-10T20:02:41.773Z,100570.73
2023-05-10T20:05:12.525Z,100569.67
2023-05-10T20:07:43.093Z,100567.30
2023-05-10T20:10:13.985Z,100572.54
2023-05-10T20:12:49.757Z,100571.15
2023-05-10T20:15:22.250Z,100571.83
2023-05-10T20:17:53.290Z,100577.60
2023-05-10T20:20:23.933Z,100575.45
2023-05-10T20:22:54.610Z,100575.19
2023-05-10T20:25:25.090Z,100576.41
2023-05-10T20:27:55.609Z,100577.23
2023-05-10T20:30:28.973Z,100576.34
2023-05-10T20:32:59.472Z,100578.95
2023-05-10T20:35:30.081Z,100579.52
2023-05-10T20:38:02.174Z,100580.46
2023-05-10T20:40:32.934Z,100578.63
2023-05-10T20:43:03.596Z,100578.02
2023-05-10T20:45:35.394Z,100580.57
2023-05-10T20:48:07.853Z,100582.45
2023-05-10T20:50:38.504Z,100582.23
2023-05-10T20:53:08.997Z,100587.11
2023-05-10T20:55:39.648Z,100588.89
2023-05-10T20:58:10.145Z,100589.21
2023-05-10T21:00:40.675Z,100587.89
2023-05-10T21:03:11.277Z,100596.13
2023-05-10T21:05:41.861Z,100595.39
2023-05-10T21:08:12.442Z,100596.88
2023-05-10T21:10:42.992Z,100597.50
2023-05-10T21:13:13.454Z,100602.31
2023-05-10T21:15:44.136Z,100598.73
2023-05-10T21:18:14.636Z,100601.41
2023-05-10T21:20:45.126Z,100603.20
2023-05-10T21:23:15.595Z,100603.70
2023-05-10T21:25:46.240Z,100605.61
2023-05-10T21:28:16.716Z,100602.16
2023-05-10T21:30:47.967Z,100604.51
2023-05-10T21:33:18.468Z,100603.70
2023-05-10T21:35:49.075Z,100603.80
2023-05-10T21:38:19.639Z,100604.43
2023-05-10T21:40:50.190Z,100601.37
2023-05-10T21:43:20.773Z,100603.28
2023-05-10T21:45:51.286Z,100606.11
2023-05-10T21:48:21.926Z,100610.47
2023-05-10T21:50:52.451Z,100610.23
2023-05-10T21:53:23.369Z,100610.29
2023-05-10T21:55:55.576Z,100613.17
2023-05-10T21:58:26.161Z,100612.77
2023-05-10T22:00:56.826Z,100615.50
2023-05-10T22:03:27.484Z,100617.36
2023-05-10T22:05:58.150Z,100620.61
2023-05-10T22:08:28.950Z,100618.00
2023-05-10T22:10:59.428Z,100621.04
2023-05-10T22:13:29.912Z,100623.15
2023-05-10T22:16:00.776Z,100623.83
2023-05-10T22:18:31.353Z,100620.96
2023-05-10T22:21:01.956Z,100624.29
2023-05-10T22:23:32.537Z,100627.16
2023-05-10T22:26:03.845Z,100626.14
2023-05-10T22:28:34.342Z,100627.36
2023-05-10T22:31:05.072Z,100631.45
2023-05-10T22:33:35.557Z,100634.17
2023-05-10T22:36:06.858Z,100632.19
2023-05-10T22:38:37.639Z,100633.66
2023-05-10T22:41:08.184Z,100639.40
2023-05-10T22:43:38.707Z,100637.75
2023-05-10T22:46:09.433Z,100640.58
2023-05-10T22:48:40.072Z,100643.64
2023-05-10T22:51:10.711Z,100646.86
2023-05-10T22:53:41.253Z,100645.83
2023-05-10T22:56:11.749Z,100645.14
2023-05-10T22:58:42.317Z,100648.36
2023-05-10T23:01:13.030Z,100649.95
2023-05-10T23:03:43.730Z,100647.41
2023-05-10T23:06:14.664Z,100650.08
2023-05-10T23:08:45.654Z,100652.01
2023-05-10T23:11:16.560Z,100648.84
2023-05-10T23:13:47.389Z,100652.89
2023-05-10T23:16:18.399Z,100653.65
2023-05-10T23:18:49.262Z,100654.16
2023-05-10T23:21:20.192Z,100655.89
2023-05-10T23:23:51.005Z,100653.67
2023-05-10T23:26:22.454Z,100653.73
2023-05-10T23:28:53.269Z,100658.27
2023-05-10T23:31:24.125Z,100659.06
2023-05-10T23:33:55.163Z,100659.15
2023-05-10T23:36:25.976Z,100655.95
2023-05-10T23:38:56.693Z,100657.59
2023-05-10T23:41:27.769Z,100658.82
2023-05-10T23:43:58.617Z,100655.27
2023-05-10T23:46:29.406Z,100657.60
2023-05-10T23:49:00.206Z,100657.23
2023-05-10T23:51:31.025Z,100658.93
2023-05-10T23:54:02.215Z,100661.14
2023-05-10T23:56:33.294Z,100657.83
2023-05-10T23:59:06.068Z,100660.27
